Clonakilty, Ireland
Current Conditions -  °F | °C
As of 5:00 AM on Sunday 26 Oct 2014 (Local Time) from EICK Reporting Station
Rain Showers Rain Showers  
Wind Chill: 52°   Ceiling: 1400
Heat Index: 52°   Visibility: 5mi
Dew Point: 52°   Wind: 13mph
Humidity: 100%   Direction: 230°SW
Pressure: 29.94"   Gusts: NA
Location:  51.62°N, 8.89°W
Report Text: EICK 260500Z 23011KT 8000 -SHRA SCT006 BKN014 BKN030 11/11 Q1014 NOSIG
Loading
Personal Weather Stations






























Interactive Weather Map
Tropical Storm Tracking
New forecast layout! Learn more

10-Day Weather Forecast

Advertisements
Track Severe Weather on mobile